Weather Models
Both GFS & NAM
00z 06z 12z 18z
24hr Precip
00z 06z 12z 18z
36hr Simulated radar
00z 06z 12z 18z
SKEWT Soundings
00z 12z
Current Conditions (Updated 1:55am on 6/20/19)
Temperature
 74°
-0.10
74°  
73°  
0
10
20
30
40
50
60
70
80
90
100
Dew Point
71°
71°  
69°  
-20
-10
0
10
20
30
40
50
60
70
80
Heat Index
79°
79°  
79°  
30
40
50
60
70
80
90
100
110
120
130
Heat Index
Humidity
91%
91% 
86% 
0
10
20
30
40
50
60
70
80
90
100
Barometer
29.72
   Steady
29.72  
29.69  
28.00
28.30
28.60
28.90
29.20
29.50
29.80
30.10
30.40
30.70
31.00
Temperature
Dew Point
Humidity
Pressure
Wind
0mph
 SW
Daily Rain
.00
.05
.10
.15
.20
.25
.30
.35
.40
.45
.50
Rain Today
 0.16" 
Month Rain
0.00
0.50
1.00
1.50
2.00
2.50
3.00
3.50
4.00
4.50
5.00
Month Rain
 3.91" 
Year Rain
0.00
5.00
10.00
15.00
20.00
25.00
30.00
35.00
40.00
45.00
50.00
Year Rain
 26.47" 
Sun & Moon Data
Sunrise 5:32am
Sunset 8:33pm
Moonrise 11:16pm
Moonset 8:25am
Moon % 94%
Other Rain Data
Past Hour 0.15 Past 24 Hours 0.62
Past 3 Hours 0.16 Past 7 Days 2.48
Past 6 Hours 0.16
Cloud Height
696


Current Front Map
Current Satellite map
7 Day Forecast
NWS Forecast for Philadelphia PA
National Weather Service Forecast for: Philadelphia PA
Issued by: National Weather Service Philadelphia, PA
Updated: 12:41 am EDT Jun 20, 2019

Philadelphia
 
Overnight

Overnight: A chance of showers and thunderstorms. Some of the storms could produce heavy rain.  Areas of fog.  Otherwise, cloudy, with a low around 70. Calm wind.  Chance of precipitation is 50%. New rainfall amounts between a tenth and quarter of an inch, except higher amounts possible in thunderstorms.
Heavy Rain
and Areas Fog
Thursday

Thursday: Showers and thunderstorms, mainly after 5pm.  High near 87. Southwest wind 3 to 8 mph.  Chance of precipitation is 80%. New rainfall amounts between a tenth and quarter of an inch, except higher amounts possible in thunderstorms.
Cloudy then
T-storms
Thursday
Night
Thursday Night: Showers and thunderstorms likely before 2am, then a chance of showers. Some of the storms could produce gusty winds and heavy rain.  Patchy fog.  Otherwise, mostly cloudy, with a low around 68. Southwest wind 6 to 9 mph.  Chance of precipitation is 60%. New rainfall amounts of less than a tenth of an inch, except higher amounts possible in thunderstorms.
Heavy Rain
and Patchy
Fog
Friday

Friday: A chance of showers, mainly between 7am and 2pm.  Partly sunny, with a high near 81. Northwest wind 11 to 18 mph, with gusts as high as 30 mph.  Chance of precipitation is 30%. New precipitation amounts of less than a tenth of an inch possible.
Chance
Showers
Friday
Night
Friday Night: Mostly clear, with a low around 61. Northwest wind 8 to 13 mph.
Mostly Clear

Saturday

Saturday: Sunny, with a high near 82.
Sunny

Saturday
Night
Saturday Night: Mostly clear, with a low around 61.
Mostly Clear

Sunday

Sunday: Mostly sunny, with a high near 85.
Mostly Sunny

Sunday
Night
Sunday Night: A chance of showers.  Partly cloudy, with a low around 68. Chance of precipitation is 30%.
Chance
Showers
Lo 70 °F Hi 87 °F Lo 68 °F Hi 81 °F Lo 61 °F Hi 82 °F Lo 61 °F Hi 85 °F Lo 68 °F

Hazardous Weather Outlook
Flash Flood Watch
Flash Flood Warning
 

Overnight
 
A chance of showers and thunderstorms. Some of the storms could produce heavy rain. Areas of fog. Otherwise, cloudy, with a low around 70. Calm wind. Chance of precipitation is 50%. New rainfall amounts between a tenth and quarter of an inch, except higher amounts possible in thunderstorms.
Thursday
 
Showers and thunderstorms, mainly after 5pm. High near 87. Southwest wind 3 to 8 mph. Chance of precipitation is 80%. New rainfall amounts between a tenth and quarter of an inch, except higher amounts possible in thunderstorms.
Thursday Night
 
Showers and thunderstorms likely before 2am, then a chance of showers. Some of the storms could produce gusty winds and heavy rain. Patchy fog. Otherwise, mostly cloudy, with a low around 68. Southwest wind 6 to 9 mph. Chance of precipitation is 60%. New rainfall amounts of less than a tenth of an inch, except higher amounts possible in thunderstorms.
Friday
 
A chance of showers, mainly between 7am and 2pm. Partly sunny, with a high near 81. Northwest wind 11 to 18 mph, with gusts as high as 30 mph. Chance of precipitation is 30%. New precipitation amounts of less than a tenth of an inch possible.
Friday Night
 
Mostly clear, with a low around 61. Northwest wind 8 to 13 mph.
Saturday
 
Sunny, with a high near 82.
Saturday Night
 
Mostly clear, with a low around 61.
Sunday
 
Mostly sunny, with a high near 85.
Sunday Night
 
A chance of showers. Partly cloudy, with a low around 68. Chance of precipitation is 30%.
Monday
 
A chance of showers, with thunderstorms also possible after 2pm. Partly sunny, with a high near 89. Chance of precipitation is 40%.
Monday Night
 
A chance of showers and thunderstorms. Mostly cloudy, with a low around 72. Chance of precipitation is 40%.
Tuesday
 
A chance of showers. Partly sunny, with a high near 88. Chance of precipitation is 30%.
Tuesday Night
 
Partly cloudy, with a low around 69.
Wednesday
 
Mostly sunny, with a high near 86.

 

Forecast from NOAA-NWS for Philadelphia PA.

Area Weather Current Conditions
Nearby METAR Reports

KPHL - Philadelphia, Pennsylvania
Updated: Thu, 20-Jun-2019 1:50am EDT
Heavy thunderstorm, Rain, Mist, Overcast
Heavy thunderstorm, Rain, Mist, Overcast
 Wind from N
Wind: N 9 mph , 15 km/h
Temperature: 70°F , 21°C
Dew Point: 70°F , 21°C
Humidity: 100%
Barometer: 29.70 inHg , 1005.8 hPa
Summary: Heavy thunderstorm, Rain, Mist
Clouds: Overcast
Visibility: 1 mile , 2 km
Cloud details: Few Clouds 300 ft
Mostly Cloudy 900 ft
Overcast 1500 ft
2019/06/20 05:50 KPHL 200550Z 36008KT 1SM R09R/2400VP6000FT +TSRA BR FEW003 BKN009CB OVC015 21/21 A2970 RMK AO2 LTG DSNT ALQDS FRQ LTGICCCCG OHD TS OHD MOV NE P0126 $
KMPO - Mt. Pocono, Pennsylvania
Updated: Thu, 20-Jun-2019 12:53am EDT
Light rain, Fog, Overcast
Light rain, Fog, Overcast
 Wind from E
Wind: E 6 mph , 9 km/h
Temperature: 64°F , 18°C
Dew Point: 64°F , 18°C
Humidity: 100%
Barometer: 29.76 inHg , 1007.8 hPa
Summary: Light rain, Fog
Clouds: Overcast
Visibility: 1/2 mile , 0.8 km
Cloud details: Overcast 100 ft
2019/06/20 04:53 KMPO 200453Z AUTO 09005KT 1/2SM -RA FG VV001 18/18 A2976 RMK AO2 RAB41 SLP072 P0001 T01780178 401890122
 
KACY - Atlantic City, New Jersey
Updated: Thu, 20-Jun-2019 1:10am EDT
Overcast
Overcast
 Wind from SSW
Wind: SSW 5 mph , 7 km/h
Temperature: 73°F , 23°C
Dew Point: 72°F , 22°C
Humidity: 94%
Barometer: 29.70 inHg , 1005.8 hPa
Clouds: Overcast
Visibility: 10 miles , 16 km
Cloud details: Overcast 400 ft
2019/06/20 05:10 KACY 200510Z 20004KT 10SM OVC004 23/22 A2970 RMK AO2 LTG DSNT N T02280217
KMIV - Millville, New Jersey
Updated: Thu, 20-Jun-2019 12:54am EDT
Mostly Cloudy
Mostly Cloudy
 Wind from S
Wind: S 5 mph , 7 km/h
Temperature: 73°F , 23°C
Dew Point: 73°F , 23°C
Humidity: 100%
Barometer: 29.69 inHg , 1005.4 hPa
Clouds: Mostly Cloudy
Visibility: 10 miles , 16 km
Cloud details: Few Clouds 800 ft
Mostly Cloudy 4500 ft
2019/06/20 04:54 KMIV 200454Z AUTO 17004KT 10SM FEW008 BKN045 23/23 A2969 RMK AO2 LTG DSNT NW-NE SLP053 T02280228 402890211
 
KWWD - Wildwood, New Jersey
Updated: Thu, 20-Jun-2019 1:12am EDT
Overcast
Overcast
 Wind from S
Wind: S 6 mph , 9 km/h
Temperature: 72°F , 22°C
Dew Point: 72°F , 22°C
Humidity: 100%
Barometer: 29.70 inHg , 1005.8 hPa
Clouds: Overcast
Visibility: 10 miles , 16 km
Cloud details: Overcast 200 ft
2019/06/20 05:12 KWWD 200512Z AUTO 19005KT 10SM OVC002 22/22 A2970 RMK AO2
KDOV - Dover Afb, Delaware
Updated: Thu, 20-Jun-2019 1:39am EDT
Few Clouds
Few Clouds
 Wind from S
Wind: S 7 mph , 11 km/h
Temperature: 75°F , 24°C
Dew Point: 73°F , 23°C
Humidity: 94%
Barometer: 29.67 inHg , 1004.7 hPa
Clouds: Few Clouds
Visibility: 10 miles , 16 km
Cloud details: Few Clouds 800 ft
2019/06/20 05:39 KDOV 200539Z AUTO 18006KT 10SM FEW008 24/23 A2967 RMK AO2 SLP050 $
Severe Weather Map